createdAt,value
2017-08-19T00:00:48.706Z,15.3
2017-08-19T00:01:50.086Z,15.3
2017-08-19T00:02:51.477Z,15.3
2017-08-19T00:03:53.317Z,15.3
2017-08-19T00:04:55.579Z,15.3
2017-08-19T00:05:57.811Z,15.4
2017-08-19T00:07:00.101Z,15.1
2017-08-19T00:08:01.473Z,15.2
2017-08-19T00:09:03.744Z,15.2
2017-08-19T00:10:05.146Z,15.2
2017-08-19T00:11:06.520Z,15.1
2017-08-19T00:12:07.910Z,15.2
2017-08-19T00:13:09.358Z,15.2
2017-08-19T00:14:10.810Z,15.1
2017-08-19T00:15:12.266Z,15.1
2017-08-19T00:16:13.724Z,15.1
2017-08-19T00:17:15.288Z,15.0
2017-08-19T00:18:16.672Z,15.1
2017-08-19T00:19:18.133Z,15.0
2017-08-19T00:20:19.554Z,15.0
2017-08-19T00:21:20.935Z,14.9
2017-08-19T00:22:22.657Z,15.0
2017-08-19T00:23:24.004Z,15.0
2017-08-19T00:24:25.414Z,15.0
2017-08-19T00:25:26.806Z,14.9
2017-08-19T00:26:28.249Z,14.9
2017-08-19T00:27:29.722Z,14.8
2017-08-19T00:28:31.161Z,14.9
2017-08-19T00:29:32.707Z,14.8
2017-08-19T00:30:34.799Z,14.9
2017-08-19T00:32:17.132Z,14.8
2017-08-19T00:33:18.533Z,14.8
2017-08-19T00:34:19.913Z,14.8
2017-08-19T00:35:21.290Z,14.8
2017-08-19T00:36:22.665Z,14.8
2017-08-19T00:37:24.052Z,14.9
2017-08-19T00:38:25.430Z,14.9
2017-08-19T00:39:26.822Z,14.9
2017-08-19T00:40:28.204Z,14.8
2017-08-19T00:41:29.622Z,15.0
2017-08-19T00:42:31.332Z,14.9
2017-08-19T00:43:32.739Z,14.9
2017-08-19T00:44:34.149Z,14.8
2017-08-19T00:45:35.836Z,14.8
2017-08-19T00:46:37.287Z,14.9
2017-08-19T00:47:38.683Z,14.8
2017-08-19T00:48:40.060Z,14.9
2017-08-19T00:49:41.648Z,14.8
2017-08-19T00:50:43.035Z,14.8
2017-08-19T00:51:44.423Z,14.8
2017-08-19T00:52:45.850Z,14.8
2017-08-19T00:53:47.265Z,14.7
2017-08-19T00:54:48.666Z,14.8
2017-08-19T00:55:50.550Z,14.8
2017-08-19T00:56:52.280Z,14.8
2017-08-19T00:57:53.710Z,14.8
2017-08-19T00:58:55.094Z,14.7
2017-08-19T00:59:56.479Z,14.7
2017-08-19T01:00:57.884Z,14.7
2017-08-19T01:01:59.268Z,14.7
2017-08-19T01:03:00.864Z,14.7
2017-08-19T01:04:43.212Z,14.7
2017-08-19T01:05:44.586Z,14.6
2017-08-19T01:06:45.962Z,14.6
2017-08-19T01:07:47.339Z,14.6
2017-08-19T01:08:48.722Z,14.7
2017-08-19T01:09:50.173Z,14.6
2017-08-19T01:10:51.503Z,14.5
2017-08-19T01:11:52.914Z,14.6
2017-08-19T01:12:54.288Z,14.6
2017-08-19T01:13:55.663Z,14.6
2017-08-19T01:14:57.126Z,14.6
2017-08-19T01:15:59.030Z,14.7
2017-08-19T01:17:01.079Z,14.6
2017-08-19T01:18:03.407Z,14.8
2017-08-19T01:19:04.977Z,14.7
2017-08-19T01:20:47.398Z,14.7
2017-08-19T01:21:48.762Z,14.7
2017-08-19T01:22:50.136Z,14.8
2017-08-19T01:23:51.523Z,14.8
2017-08-19T01:24:52.902Z,14.8
2017-08-19T01:25:54.279Z,14.8
2017-08-19T01:26:55.654Z,14.7
2017-08-19T01:27:57.089Z,14.8
2017-08-19T01:28:58.713Z,14.8
2017-08-19T01:30:00.097Z,14.7
2017-08-19T01:31:01.481Z,14.7
2017-08-19T01:32:02.896Z,14.7
2017-08-19T01:33:04.346Z,14.8
2017-08-19T01:34:05.758Z,14.8
2017-08-19T01:35:07.188Z,14.8
2017-08-19T01:36:08.562Z,14.7
2017-08-19T01:37:09.950Z,14.8
2017-08-19T01:38:11.362Z,14.8
2017-08-19T01:39:12.816Z,14.6
2017-08-19T01:40:14.350Z,14.6
2017-08-19T01:41:15.787Z,14.7
2017-08-19T01:42:17.181Z,14.6
2017-08-19T01:43:18.545Z,14.6
2017-08-19T01:44:20.317Z,14.6
2017-08-19T01:45:21.685Z,14.6
2017-08-19T01:46:23.077Z,14.5
2017-08-19T01:47:24.564Z,14.6
2017-08-19T01:48:25.966Z,14.5
2017-08-19T01:49:27.458Z,14.6
2017-08-19T01:50:28.940Z,14.6
2017-08-19T01:51:30.362Z,14.6
2017-08-19T01:53:12.739Z,14.5
2017-08-19T01:54:14.113Z,14.6
2017-08-19T01:55:15.506Z,14.4
2017-08-19T01:56:16.871Z,14.4
2017-08-19T01:57:18.286Z,14.5
2017-08-19T01:58:20.406Z,14.4
2017-08-19T01:59:22.206Z,14.4
2017-08-19T02:00:23.565Z,14.5
2017-08-19T02:01:25.002Z,14.4
2017-08-19T02:02:26.396Z,14.4
2017-08-19T02:03:27.799Z,14.5
2017-08-19T02:04:29.386Z,14.4
2017-08-19T02:05:30.889Z,14.3
2017-08-19T02:06:32.375Z,14.5
2017-08-19T02:07:34.388Z,14.5
2017-08-19T02:08:36.157Z,14.5
2017-08-19T02:09:37.649Z,14.5
2017-08-19T02:10:39.138Z,14.5
2017-08-19T02:11:40.560Z,14.5
2017-08-19T02:12:41.961Z,14.5
2017-08-19T02:13:43.384Z,14.5
2017-08-19T02:14:45.157Z,14.4
2017-08-19T02:15:47.021Z,14.4
2017-08-19T02:16:49.132Z,14.4
2017-08-19T02:17:50.576Z,14.4
2017-08-19T02:18:52.112Z,14.4
2017-08-19T02:19:53.574Z,14.3
2017-08-19T02:21:35.942Z,14.4
2017-08-19T02:22:37.321Z,14.2
2017-08-19T02:23:38.699Z,14.2
2017-08-19T02:24:40.086Z,14.3
2017-08-19T02:25:41.452Z,14.4
2017-08-19T02:26:42.852Z,14.2
2017-08-19T02:27:44.227Z,14.3
2017-08-19T02:28:45.613Z,14.2
2017-08-19T02:29:46.986Z,14.2
2017-08-19T02:30:48.507Z,14.3
2017-08-19T02:31:50.027Z,14.2
2017-08-19T02:32:51.494Z,14.2
2017-08-19T02:33:52.893Z,14.3
2017-08-19T02:34:54.409Z,14.3
2017-08-19T02:35:55.794Z,14.2
2017-08-19T02:37:38.150Z,14.3
2017-08-19T02:38:39.573Z,14.2
2017-08-19T02:39:40.947Z,14.2
2017-08-19T02:40:42.321Z,14.2
2017-08-19T02:41:43.707Z,14.3
2017-08-19T02:42:45.093Z,14.3
2017-08-19T02:43:46.483Z,14.3
2017-08-19T02:44:47.859Z,14.2
2017-08-19T02:45:49.252Z,14.2
2017-08-19T02:46:50.625Z,14.2
2017-08-19T02:47:52.005Z,14.3
2017-08-19T02:48:53.408Z,14.2
2017-08-19T02:49:54.787Z,14.2
2017-08-19T02:50:56.184Z,14.1
2017-08-19T02:51:57.586Z,14.1
2017-08-19T02:52:58.973Z,14.1
2017-08-19T02:54:00.372Z,14.2
2017-08-19T02:55:01.756Z,14.1
2017-08-19T02:56:03.140Z,14.1
2017-08-19T02:57:04.628Z,14.1
2017-08-19T02:58:06.044Z,14.0
2017-08-19T02:59:07.452Z,14.1
2017-08-19T03:00:08.842Z,14.0
2017-08-19T03:01:10.240Z,14.0
2017-08-19T03:02:11.674Z,14.1
2017-08-19T03:03:13.064Z,14.0
2017-08-19T03:04:14.504Z,14.0
2017-08-19T03:05:15.898Z,14.0
2017-08-19T03:06:17.272Z,14.0
2017-08-19T03:07:18.657Z,14.0
2017-08-19T03:08:20.062Z,14.0
2017-08-19T03:10:02.423Z,14.0
2017-08-19T03:11:03.787Z,14.0
2017-08-19T03:12:05.170Z,14.0
2017-08-19T03:13:06.540Z,14.0
2017-08-19T03:14:07.925Z,13.9
2017-08-19T03:15:09.316Z,13.9
2017-08-19T03:16:10.689Z,13.9
2017-08-19T03:17:12.076Z,13.8
2017-08-19T03:18:13.448Z,13.8
2017-08-19T03:19:14.828Z,13.8
2017-08-19T03:20:16.200Z,13.9
2017-08-19T03:21:17.572Z,13.8
2017-08-19T03:22:18.944Z,14.0
2017-08-19T03:23:20.326Z,14.0
2017-08-19T03:24:21.703Z,14.0
2017-08-19T03:26:04.081Z,14.1
2017-08-19T03:27:05.463Z,14.0
2017-08-19T03:28:06.837Z,14.0
2017-08-19T03:29:08.231Z,14.0
2017-08-19T03:30:09.610Z,14.0
2017-08-19T03:31:10.980Z,13.9
2017-08-19T03:32:12.395Z,14.0
2017-08-19T03:33:13.819Z,13.9
2017-08-19T03:34:15.204Z,13.9
2017-08-19T03:35:16.618Z,13.9
2017-08-19T03:36:18.009Z,13.8
2017-08-19T03:37:19.428Z,13.9
2017-08-19T03:38:20.903Z,13.9
2017-08-19T03:39:22.378Z,13.9
2017-08-19T03:40:23.795Z,13.8
2017-08-19T03:41:25.255Z,13.8
2017-08-19T03:42:26.632Z,13.9
2017-08-19T03:43:28.034Z,13.9
2017-08-19T03:44:29.435Z,13.9
2017-08-19T03:45:30.863Z,13.9
2017-08-19T03:46:32.244Z,13.9
2017-08-19T03:47:33.658Z,13.9
2017-08-19T03:48:35.042Z,13.8
2017-08-19T03:49:36.604Z,13.8
2017-08-19T03:50:37.987Z,13.8
2017-08-19T03:51:39.495Z,13.8
2017-08-19T03:52:41.070Z,13.8
2017-08-19T03:53:42.448Z,13.8
2017-08-19T03:54:43.833Z,13.8
2017-08-19T03:55:45.255Z,13.9
2017-08-19T03:56:46.741Z,13.8
2017-08-19T03:58:29.115Z,13.8
2017-08-19T03:59:30.493Z,13.9
2017-08-19T04:00:31.891Z,13.8
2017-08-19T04:01:33.245Z,13.8
2017-08-19T04:02:34.668Z,13.8
2017-08-19T04:03:36.017Z,13.8
2017-08-19T04:04:37.403Z,13.8
2017-08-19T04:05:38.772Z,13.8
2017-08-19T04:06:40.150Z,13.9
2017-08-19T04:08:22.506Z,13.9
2017-08-19T04:09:23.892Z,14.0
2017-08-19T04:10:25.267Z,13.9
2017-08-19T04:11:26.642Z,13.8
2017-08-19T04:12:28.033Z,13.8
2017-08-19T04:13:29.466Z,13.8
2017-08-19T04:14:30.827Z,13.9
2017-08-19T04:15:32.208Z,13.8
2017-08-19T04:16:33.608Z,13.8
2017-08-19T04:17:34.988Z,13.8
2017-08-19T04:18:36.364Z,14.0
2017-08-19T04:19:37.751Z,13.9
2017-08-19T04:20:39.124Z,13.9
2017-08-19T04:21:40.542Z,13.9
2017-08-19T04:22:41.921Z,13.9
2017-08-19T04:24:24.411Z,13.9
2017-08-19T04:25:25.797Z,13.8
2017-08-19T04:26:27.174Z,13.9
2017-08-19T04:27:28.550Z,13.8
2017-08-19T04:28:29.944Z,13.9
2017-08-19T04:29:31.321Z,13.8
2017-08-19T04:30:33.213Z,13.9
2017-08-19T04:31:34.659Z,13.8
2017-08-19T04:32:36.037Z,13.9
2017-08-19T04:33:37.806Z,13.8
2017-08-19T04:34:39.144Z,13.8
2017-08-19T04:35:40.581Z,13.9
2017-08-19T04:36:41.967Z,13.9
2017-08-19T04:37:43.395Z,13.8
2017-08-19T04:38:44.858Z,13.8
2017-08-19T04:39:46.246Z,13.8
2017-08-19T04:40:47.785Z,13.8
2017-08-19T04:41:49.191Z,13.9
2017-08-19T04:42:50.579Z,13.8
2017-08-19T04:43:51.965Z,13.9
2017-08-19T04:44:53.347Z,14.0
2017-08-19T04:45:54.838Z,14.0
2017-08-19T04:46:56.228Z,14.0
2017-08-19T04:47:57.615Z,14.0
2017-08-19T04:48:59.036Z,14.2
2017-08-19T04:50:00.510Z,14.2
2017-08-19T04:51:01.902Z,14.3
2017-08-19T04:52:03.316Z,14.2
2017-08-19T04:53:04.841Z,14.3
2017-08-19T04:54:06.224Z,14.3
2017-08-19T04:55:07.655Z,14.4
2017-08-19T04:56:50.032Z,14.4
2017-08-19T04:57:51.472Z,14.5
2017-08-19T04:58:52.850Z,14.4
2017-08-19T04:59:54.230Z,14.4
2017-08-19T05:00:55.613Z,14.4
2017-08-19T05:01:56.994Z,14.3
2017-08-19T05:02:58.373Z,14.4
2017-08-19T05:03:59.825Z,14.4
2017-08-19T05:05:01.162Z,14.6
2017-08-19T05:06:02.541Z,14.6
2017-08-19T05:07:03.929Z,14.7
2017-08-19T05:08:05.335Z,14.9
2017-08-19T05:09:06.714Z,15.0
2017-08-19T05:10:08.260Z,15.0
2017-08-19T05:11:09.666Z,15.1
2017-08-19T05:12:52.032Z,15.3
2017-08-19T05:13:53.404Z,15.3
2017-08-19T05:14:54.801Z,15.4
2017-08-19T05:15:56.175Z,15.5
2017-08-19T05:16:57.574Z,15.6
2017-08-19T05:17:58.947Z,15.6
2017-08-19T05:19:00.339Z,15.5
2017-08-19T05:20:01.731Z,15.5
2017-08-19T05:21:03.104Z,15.6
2017-08-19T05:22:04.526Z,15.7
2017-08-19T05:23:05.903Z,15.8
2017-08-19T05:24:07.290Z,15.8
2017-08-19T05:25:08.677Z,15.8
2017-08-19T05:26:10.087Z,15.9
2017-08-19T05:27:11.468Z,15.9
2017-08-19T05:28:12.897Z,16.1
2017-08-19T05:29:14.266Z,16.0
2017-08-19T05:30:15.662Z,16.1
2017-08-19T05:31:17.048Z,16.0
2017-08-19T05:32:18.434Z,16.1
2017-08-19T05:33:19.942Z,16.1
2017-08-19T05:34:21.350Z,16.2
2017-08-19T05:35:22.736Z,16.1
2017-08-19T05:36:24.125Z,16.2
2017-08-19T05:37:25.532Z,16.2
2017-08-19T05:38:26.927Z,16.3
2017-08-19T05:39:28.305Z,16.5
2017-08-19T05:40:29.716Z,16.5
2017-08-19T05:41:31.086Z,16.6
2017-08-19T05:42:32.515Z,16.5
2017-08-19T05:43:34.256Z,16.6
2017-08-19T05:45:15.620Z,16.7
2017-08-19T05:46:17.009Z,16.8
2017-08-19T05:47:39.006Z,16.8
2017-08-19T05:48:40.392Z,16.7
2017-08-19T05:49:41.776Z,16.7
2017-08-19T05:50:43.159Z,16.8
2017-08-19T05:51:44.541Z,16.9
2017-08-19T05:52:45.927Z,17.0
2017-08-19T05:53:47.309Z,16.8
2017-08-19T05:54:48.697Z,16.9
2017-08-19T05:55:50.098Z,17.0
2017-08-19T05:56:51.479Z,17.0
2017-08-19T05:57:52.863Z,17.1
2017-08-19T05:58:54.248Z,17.3
2017-08-19T05:59:55.643Z,17.4
2017-08-19T06:00:57.043Z,17.4
2017-08-19T06:01:58.436Z,17.5
2017-08-19T06:02:59.849Z,17.7
2017-08-19T06:04:01.230Z,17.9
2017-08-19T06:05:02.617Z,17.9
2017-08-19T06:06:04.019Z,17.9
2017-08-19T06:07:05.403Z,18.0
2017-08-19T06:08:06.791Z,18.1
2017-08-19T06:09:08.182Z,18.2
2017-08-19T06:10:09.576Z,18.2
2017-08-19T06:11:10.969Z,18.3
2017-08-19T06:12:12.353Z,18.4
2017-08-19T06:13:13.741Z,18.5
2017-08-19T06:14:15.124Z,18.4
2017-08-19T06:15:16.513Z,18.4
2017-08-19T06:16:17.899Z,18.4
2017-08-19T06:17:19.283Z,18.5
2017-08-19T06:18:20.668Z,18.6
2017-08-19T06:19:22.052Z,18.6
2017-08-19T06:20:24.226Z,18.5
2017-08-19T06:21:25.562Z,18.4
2017-08-19T06:22:26.949Z,18.4
2017-08-19T06:23:28.335Z,18.5
2017-08-19T06:24:29.804Z,18.5
2017-08-19T06:25:31.192Z,18.7
2017-08-19T06:26:32.575Z,18.5
2017-08-19T06:27:34.041Z,18.5
2017-08-19T06:28:35.398Z,18.3
2017-08-19T06:29:36.794Z,18.4
2017-08-19T06:30:38.185Z,18.5
2017-08-19T06:31:39.604Z,18.6
2017-08-19T06:32:40.985Z,18.7
2017-08-19T06:34:23.551Z,18.6
2017-08-19T06:35:24.918Z,18.7
2017-08-19T06:36:26.305Z,18.8
2017-08-19T06:37:27.690Z,18.9
2017-08-19T06:38:29.081Z,18.9
2017-08-19T06:39:30.463Z,19.1
2017-08-19T06:40:31.852Z,19.0
2017-08-19T06:41:33.238Z,19.3
2017-08-19T06:42:34.623Z,19.3
2017-08-19T06:43:36.010Z,19.3
2017-08-19T06:44:37.398Z,19.3
2017-08-19T06:45:38.783Z,19.3
2017-08-19T06:46:40.180Z,19.3
2017-08-19T06:47:41.581Z,19.3
2017-08-19T06:49:25.039Z,19.2
2017-08-19T06:50:26.539Z,19.4
2017-08-19T06:51:27.886Z,19.4
2017-08-19T06:52:29.261Z,19.4
2017-08-19T06:53:30.655Z,19.5
2017-08-19T06:54:32.045Z,19.4
2017-08-19T06:55:33.432Z,19.4
2017-08-19T06:56:34.821Z,19.5
2017-08-19T06:57:36.210Z,19.4
2017-08-19T06:58:37.596Z,19.4
2017-08-19T06:59:38.984Z,19.6
2017-08-19T07:00:40.379Z,19.7
2017-08-19T07:01:41.912Z,19.8
2017-08-19T07:02:43.286Z,19.6
2017-08-19T07:03:44.686Z,19.6
2017-08-19T07:04:46.071Z,19.7
2017-08-19T07:05:47.456Z,19.8
2017-08-19T07:06:48.847Z,19.8
2017-08-19T07:07:50.236Z,20.0
2017-08-19T07:08:51.632Z,20.1
2017-08-19T07:09:53.014Z,20.2
2017-08-19T07:10:54.604Z,20.4
2017-08-19T07:11:56.020Z,20.5
2017-08-19T07:12:57.457Z,20.4
2017-08-19T07:13:58.851Z,20.5
2017-08-19T07:15:00.421Z,20.6
2017-08-19T07:16:01.816Z,20.5
2017-08-19T07:17:03.875Z,20.5
2017-08-19T07:18:05.314Z,20.9
2017-08-19T07:19:06.718Z,21.0
2017-08-19T07:20:08.104Z,21.0
2017-08-19T07:21:10.092Z,21.0
2017-08-19T07:22:52.442Z,21.2
2017-08-19T07:23:53.837Z,21.0
2017-08-19T07:24:55.232Z,21.2
2017-08-19T07:25:56.624Z,21.2
2017-08-19T07:26:58.012Z,20.9
2017-08-19T07:27:59.409Z,21.1
2017-08-19T07:29:00.820Z,21.0
2017-08-19T07:30:02.211Z,21.2
2017-08-19T07:31:03.604Z,21.2
2017-08-19T07:32:05.698Z,21.3
2017-08-19T07:33:07.076Z,21.2
2017-08-19T07:34:08.868Z,21.3
2017-08-19T07:35:11.017Z,21.4
2017-08-19T07:36:12.419Z,21.3
2017-08-19T07:37:13.853Z,21.2
2017-08-19T07:38:15.275Z,21.1
2017-08-19T07:39:17.566Z,21.1
2017-08-19T07:40:18.965Z,21.1
2017-08-19T07:41:20.412Z,21.5
2017-08-19T07:42:21.801Z,21.5
2017-08-19T07:43:23.266Z,21.7
2017-08-19T07:44:24.683Z,21.7
2017-08-19T07:45:26.070Z,21.9
2017-08-19T07:46:27.463Z,21.8
2017-08-19T07:47:28.861Z,21.6
2017-08-19T07:48:30.289Z,21.1
2017-08-19T07:49:31.668Z,21.1
2017-08-19T07:50:33.062Z,20.9
2017-08-19T07:51:34.456Z,20.7
2017-08-19T07:52:35.851Z,20.4
2017-08-19T07:53:37.234Z,20.4
2017-08-19T07:54:38.625Z,20.5
2017-08-19T07:55:40.040Z,20.3
2017-08-19T07:56:41.515Z,20.1
2017-08-19T07:57:42.920Z,20.5
2017-08-19T07:58:44.310Z,20.9
2017-08-19T07:59:45.702Z,20.9
2017-08-19T08:00:47.110Z,21.0
2017-08-19T08:01:48.517Z,21.1
2017-08-19T08:02:49.986Z,21.7
2017-08-19T08:03:51.368Z,21.6
2017-08-19T08:04:52.782Z,21.4
2017-08-19T08:05:54.172Z,21.4
2017-08-19T08:06:55.590Z,21.7
2017-08-19T08:07:56.980Z,22.2
2017-08-19T08:08:58.371Z,22.6
2017-08-19T08:09:59.828Z,22.7
2017-08-19T08:11:01.212Z,22.9
2017-08-19T08:12:02.600Z,22.7
2017-08-19T08:13:03.996Z,22.5
2017-08-19T08:14:05.390Z,22.1
2017-08-19T08:15:06.783Z,22.0
2017-08-19T08:16:08.171Z,21.8
2017-08-19T08:17:09.574Z,21.8
2017-08-19T08:18:10.989Z,21.1
2017-08-19T08:19:12.380Z,21.0
2017-08-19T08:20:54.773Z,20.9
2017-08-19T08:21:56.143Z,20.8
2017-08-19T08:22:57.541Z,21.0
2017-08-19T08:23:58.930Z,21.0
2017-08-19T08:25:00.331Z,20.6
2017-08-19T08:26:01.717Z,20.6
2017-08-19T08:27:03.109Z,20.4
2017-08-19T08:28:04.500Z,20.3
2017-08-19T08:29:05.888Z,20.4
2017-08-19T08:30:07.279Z,20.4
2017-08-19T08:31:08.666Z,20.1
2017-08-19T08:32:10.055Z,20.2
2017-08-19T08:33:11.444Z,20.1
2017-08-19T08:34:12.834Z,20.1
2017-08-19T08:35:54.221Z,20.1
2017-08-19T08:36:55.607Z,20.1
2017-08-19T08:37:56.994Z,20.3
2017-08-19T08:38:58.387Z,20.4
2017-08-19T08:39:59.774Z,20.5
2017-08-19T08:41:01.161Z,20.5
2017-08-19T08:42:02.551Z,20.5
2017-08-19T08:43:03.944Z,20.5
2017-08-19T08:44:05.330Z,20.5
2017-08-19T08:45:06.717Z,20.2
2017-08-19T08:46:08.105Z,20.2
2017-08-19T08:47:09.495Z,20.4
2017-08-19T08:48:10.919Z,20.2
2017-08-19T08:49:12.306Z,20.3
2017-08-19T08:50:13.696Z,20.2
2017-08-19T08:51:15.086Z,20.2
2017-08-19T08:52:16.473Z,20.2
2017-08-19T08:53:17.867Z,20.2
2017-08-19T08:54:19.254Z,20.1
2017-08-19T08:55:20.648Z,19.9
2017-08-19T08:56:22.036Z,19.9
2017-08-19T08:57:23.423Z,19.8
2017-08-19T08:58:24.813Z,19.7
2017-08-19T08:59:26.199Z,19.5
2017-08-19T09:00:27.585Z,19.4
2017-08-19T09:01:28.970Z,19.3
2017-08-19T09:02:30.371Z,19.2
2017-08-19T09:03:31.761Z,19.3
2017-08-19T09:04:33.150Z,19.2
2017-08-19T09:05:34.536Z,19.3
2017-08-19T09:06:35.928Z,19.3
2017-08-19T09:08:17.318Z,19.7
2017-08-19T09:09:18.703Z,20.0
2017-08-19T09:10:41.715Z,20.1
2017-08-19T09:11:43.099Z,20.2
2017-08-19T09:12:44.490Z,20.0
2017-08-19T09:13:45.877Z,20.1
2017-08-19T09:14:47.262Z,20.1
2017-08-19T09:15:48.650Z,20.2
2017-08-19T09:16:50.073Z,20.2
2017-08-19T09:17:51.445Z,20.1
2017-08-19T09:18:52.831Z,20.2
2017-08-19T09:19:54.217Z,20.2
2017-08-19T09:20:55.611Z,20.0
2017-08-19T09:21:57.000Z,20.0
2017-08-19T09:22:58.408Z,20.1
2017-08-19T09:23:59.799Z,20.2
2017-08-19T09:25:01.188Z,20.2
2017-08-19T09:26:02.575Z,20.1
2017-08-19T09:27:03.959Z,20.2
2017-08-19T09:28:05.352Z,19.9
2017-08-19T09:29:06.740Z,19.8
2017-08-19T09:30:08.132Z,19.8
2017-08-19T09:31:09.522Z,19.6
2017-08-19T09:32:10.919Z,19.4
2017-08-19T09:33:12.307Z,19.5
2017-08-19T09:34:13.690Z,19.6
2017-08-19T09:35:15.080Z,19.6
2017-08-19T09:36:16.467Z,19.9
2017-08-19T09:37:17.856Z,20.2
2017-08-19T09:38:19.248Z,20.6
2017-08-19T09:39:20.669Z,21.0
2017-08-19T09:40:22.055Z,21.4
2017-08-19T09:41:23.443Z,21.3
2017-08-19T09:42:24.838Z,21.2
2017-08-19T09:43:26.226Z,21.4
2017-08-19T09:44:27.616Z,21.6
2017-08-19T09:45:29.004Z,22.0
2017-08-19T09:46:30.414Z,22.5
2017-08-19T09:47:31.805Z,23.1
2017-08-19T09:48:33.196Z,23.2
2017-08-19T09:49:34.587Z,23.1
2017-08-19T09:50:35.980Z,23.4
2017-08-19T09:51:37.374Z,23.5
2017-08-19T09:52:38.773Z,23.5
2017-08-19T09:53:40.182Z,23.7
2017-08-19T09:54:41.550Z,23.7
2017-08-19T09:56:23.924Z,24.3
2017-08-19T09:57:25.317Z,24.6
2017-08-19T09:58:26.710Z,24.8
2017-08-19T09:59:28.107Z,24.9
2017-08-19T10:00:29.503Z,24.8
2017-08-19T10:01:30.904Z,24.3
2017-08-19T10:02:32.299Z,24.5
2017-08-19T10:03:33.693Z,24.5
2017-08-19T10:04:35.145Z,24.8
2017-08-19T10:05:36.535Z,24.7
2017-08-19T10:06:37.931Z,24.8
2017-08-19T10:07:39.324Z,24.8
2017-08-19T10:08:40.738Z,24.9
2017-08-19T10:09:42.134Z,24.8
2017-08-19T10:10:43.531Z,24.7
2017-08-19T10:11:44.924Z,24.7
2017-08-19T10:12:46.314Z,24.4
2017-08-19T10:13:47.709Z,24.1
2017-08-19T10:14:49.105Z,23.9
2017-08-19T10:15:50.502Z,23.9
2017-08-19T10:16:51.896Z,23.6
2017-08-19T10:17:53.294Z,23.9
2017-08-19T10:18:54.684Z,23.8
2017-08-19T10:19:56.080Z,23.9
2017-08-19T10:20:57.474Z,23.4
2017-08-19T10:21:58.869Z,23.2
2017-08-19T10:23:00.344Z,23.2
2017-08-19T10:24:01.738Z,22.7
2017-08-19T10:25:03.133Z,22.6
2017-08-19T10:26:04.524Z,22.4
2017-08-19T10:27:05.919Z,22.1
2017-08-19T10:28:48.286Z,21.7
2017-08-19T10:29:49.676Z,21.8
2017-08-19T10:30:51.066Z,21.9
2017-08-19T10:31:52.457Z,21.9
2017-08-19T10:32:53.847Z,22.0
2017-08-19T10:33:55.284Z,22.0
2017-08-19T10:34:56.653Z,22.1
2017-08-19T10:35:58.042Z,22.2
2017-08-19T10:36:59.439Z,22.2
2017-08-19T10:38:00.821Z,22.3
2017-08-19T10:39:02.210Z,22.4
2017-08-19T10:40:03.601Z,22.1
2017-08-19T10:41:04.993Z,22.1
2017-08-19T10:42:06.391Z,22.2
2017-08-19T10:43:07.783Z,22.1
2017-08-19T10:44:50.168Z,21.9
2017-08-19T10:45:51.555Z,21.8
2017-08-19T10:46:52.945Z,22.0
2017-08-19T10:47:54.334Z,22.2
2017-08-19T10:48:55.729Z,22.3
2017-08-19T10:49:57.119Z,22.4
2017-08-19T10:50:58.521Z,22.7
2017-08-19T10:51:59.911Z,23.2
2017-08-19T10:53:01.313Z,23.9
2017-08-19T10:54:02.703Z,24.2
2017-08-19T10:55:04.096Z,24.7
2017-08-19T10:56:05.492Z,24.6
2017-08-19T10:57:06.885Z,24.7
2017-08-19T10:58:08.281Z,24.9
2017-08-19T10:59:09.681Z,25.0
2017-08-19T11:00:11.081Z,25.0
2017-08-19T11:01:12.476Z,25.0
2017-08-19T11:02:13.870Z,25.2
2017-08-19T11:03:15.265Z,24.6
2017-08-19T11:04:16.666Z,24.4
2017-08-19T11:05:18.061Z,24.4
2017-08-19T11:06:19.455Z,24.4
2017-08-19T11:07:20.858Z,24.3
2017-08-19T11:08:22.254Z,23.9
2017-08-19T11:09:23.651Z,23.7
2017-08-19T11:10:25.097Z,23.9
2017-08-19T11:11:26.489Z,23.9
2017-08-19T11:12:27.881Z,23.7
2017-08-19T11:13:29.269Z,23.4
2017-08-19T11:14:30.677Z,23.3
2017-08-19T11:15:32.067Z,23.3
2017-08-19T11:17:14.440Z,23.3
2017-08-19T11:18:15.838Z,23.5
2017-08-19T11:19:17.233Z,23.5
2017-08-19T11:20:18.625Z,23.7
2017-08-19T11:21:20.019Z,23.6
2017-08-19T11:22:21.416Z,23.9
2017-08-19T11:23:22.805Z,24.1
2017-08-19T11:24:24.203Z,24.2
2017-08-19T11:25:25.613Z,24.4
2017-08-19T11:26:27.000Z,24.6
2017-08-19T11:27:28.391Z,24.6
2017-08-19T11:28:29.786Z,24.5
2017-08-19T11:29:31.183Z,24.6
2017-08-19T11:30:32.581Z,24.7
2017-08-19T11:31:33.979Z,24.6
2017-08-19T11:32:35.369Z,24.7
2017-08-19T11:33:36.765Z,24.5
2017-08-19T11:34:38.160Z,24.6
2017-08-19T11:35:39.557Z,24.9
2017-08-19T11:36:40.957Z,24.8
2017-08-19T11:37:42.351Z,24.8
2017-08-19T11:38:43.751Z,24.9
2017-08-19T11:39:45.161Z,24.8
2017-08-19T11:40:46.559Z,24.8
2017-08-19T11:41:47.955Z,24.8
2017-08-19T11:42:49.348Z,25.2
2017-08-19T11:43:50.752Z,25.3
2017-08-19T11:44:52.146Z,25.6
2017-08-19T11:45:53.542Z,25.6
2017-08-19T11:46:54.937Z,25.9
2017-08-19T11:47:56.332Z,26.2
2017-08-19T11:48:57.734Z,26.4
2017-08-19T11:49:59.127Z,26.5
2017-08-19T11:51:00.525Z,26.5
2017-08-19T11:52:01.922Z,26.5
2017-08-19T11:53:03.320Z,26.5
2017-08-19T11:54:04.716Z,26.1
2017-08-19T11:55:06.118Z,26.1
2017-08-19T11:56:07.514Z,26.1
2017-08-19T11:57:08.914Z,26.0
2017-08-19T11:58:10.309Z,25.9
2017-08-19T11:59:11.710Z,25.9
2017-08-19T12:00:13.107Z,26.1
2017-08-19T12:01:14.513Z,26.0
2017-08-19T12:02:55.911Z,26.0
2017-08-19T12:03:57.307Z,26.2
2017-08-19T12:04:58.696Z,26.2
2017-08-19T12:06:00.091Z,26.2
2017-08-19T12:07:01.495Z,26.6
2017-08-19T12:08:02.892Z,26.8
2017-08-19T12:09:04.293Z,26.7
2017-08-19T12:10:05.708Z,27.1
2017-08-19T12:11:07.100Z,27.1
2017-08-19T12:12:08.496Z,27.4
2017-08-19T12:13:09.891Z,27.5
2017-08-19T12:14:11.286Z,27.4
2017-08-19T12:15:12.692Z,27.2
2017-08-19T12:16:14.085Z,27.2
2017-08-19T12:17:15.481Z,27.1
2017-08-19T12:18:57.879Z,27.4
2017-08-19T12:19:59.278Z,27.4
2017-08-19T12:21:00.675Z,26.5
2017-08-19T12:22:02.075Z,26.4
2017-08-19T12:23:03.473Z,26.6
2017-08-19T12:24:04.869Z,26.4
2017-08-19T12:25:06.269Z,26.8
2017-08-19T12:26:07.674Z,26.2
2017-08-19T12:27:09.068Z,25.8
2017-08-19T12:28:10.477Z,25.7
2017-08-19T12:29:11.879Z,25.8
2017-08-19T12:30:13.273Z,26.0
2017-08-19T12:31:14.671Z,25.9
2017-08-19T12:32:16.066Z,25.5
2017-08-19T12:33:17.468Z,25.6
2017-08-19T12:34:18.859Z,25.2
2017-08-19T12:35:20.259Z,25.0
2017-08-19T12:36:21.654Z,25.2
2017-08-19T12:37:23.050Z,25.2
2017-08-19T12:38:24.446Z,25.3
2017-08-19T12:39:25.857Z,25.1
2017-08-19T12:40:27.256Z,25.5
2017-08-19T12:41:28.651Z,26.2
2017-08-19T12:42:30.042Z,26.3
2017-08-19T12:43:31.457Z,26.5
2017-08-19T12:44:32.855Z,26.9
2017-08-19T12:45:34.254Z,27.1
2017-08-19T12:46:35.653Z,27.1
2017-08-19T12:47:37.052Z,26.8
2017-08-19T12:48:38.454Z,27.2
2017-08-19T12:49:39.835Z,27.1
2017-08-19T12:50:41.247Z,27.4
2017-08-19T12:51:42.655Z,27.6
2017-08-19T12:52:44.051Z,27.6
2017-08-19T12:53:45.445Z,27.4
2017-08-19T12:54:46.855Z,27.3
2017-08-19T12:55:48.252Z,26.8
2017-08-19T12:56:49.647Z,26.8
2017-08-19T12:57:51.048Z,26.9
2017-08-19T12:58:52.444Z,27.3
2017-08-19T12:59:53.843Z,27.6
2017-08-19T13:00:55.244Z,27.8
2017-08-19T13:01:56.644Z,27.4
2017-08-19T13:02:58.046Z,27.8
2017-08-19T13:03:59.443Z,27.5
2017-08-19T13:05:00.861Z,27.5
2017-08-19T13:06:02.261Z,27.5
2017-08-19T13:07:44.663Z,27.2
2017-08-19T13:08:46.061Z,27.2
2017-08-19T13:09:47.459Z,27.0
2017-08-19T13:10:48.872Z,27.3
2017-08-19T13:11:50.268Z,27.0
2017-08-19T13:12:51.668Z,27.2
2017-08-19T13:13:53.065Z,27.4
2017-08-19T13:14:54.465Z,27.0
2017-08-19T13:15:55.871Z,26.6
2017-08-19T13:16:57.264Z,26.3
2017-08-19T13:17:58.663Z,26.3
2017-08-19T13:19:00.057Z,26.0
2017-08-19T13:20:01.462Z,25.7
2017-08-19T13:21:02.854Z,25.6
2017-08-19T13:22:04.250Z,25.3
2017-08-19T13:23:05.651Z,25.3
2017-08-19T13:24:07.032Z,25.2
2017-08-19T13:25:08.428Z,25.1
2017-08-19T13:26:09.822Z,25.0
2017-08-19T13:27:11.215Z,24.5
2017-08-19T13:28:12.610Z,24.5
2017-08-19T13:29:14.003Z,24.2
2017-08-19T13:30:15.412Z,23.9
2017-08-19T13:31:16.787Z,23.9
2017-08-19T13:32:18.182Z,23.8
2017-08-19T13:33:19.577Z,24.0
2017-08-19T13:34:20.979Z,24.7
2017-08-19T13:35:22.376Z,24.8
2017-08-19T13:36:23.770Z,24.8
2017-08-19T13:37:25.161Z,25.1
2017-08-19T13:38:26.553Z,25.0
2017-08-19T13:39:27.946Z,25.5
2017-08-19T13:40:29.337Z,25.5
2017-08-19T13:41:30.747Z,25.7
2017-08-19T13:42:32.131Z,26.1
2017-08-19T13:43:33.528Z,26.1
2017-08-19T13:44:34.927Z,26.1
2017-08-19T13:45:36.323Z,26.5
2017-08-19T13:46:37.717Z,26.6
2017-08-19T13:47:39.110Z,27.0
2017-08-19T13:48:40.526Z,26.9
2017-08-19T13:49:41.903Z,27.2
2017-08-19T13:50:43.300Z,27.1
2017-08-19T13:51:44.695Z,27.5
2017-08-19T13:52:46.106Z,27.5
2017-08-19T13:53:47.502Z,27.3
2017-08-19T13:54:48.903Z,27.2
2017-08-19T13:55:50.299Z,27.1
2017-08-19T13:56:51.702Z,27.3